sensor_id;sensor_type;location;lat;lon;timestamp;temperature;humidity
23251;DHT22;11794;49.730;10.088;2022-08-05T00:00:20;22.70;88.50
23251;DHT22;11794;49.730;10.088;2022-08-05T00:02:47;22.70;89.50
23251;DHT22;11794;49.730;10.088;2022-08-05T00:05:12;22.60;90.00
23251;DHT22;11794;49.730;10.088;2022-08-05T00:07:38;22.50;90.20
23251;DHT22;11794;49.730;10.088;2022-08-05T00:10:04;22.40;90.40
23251;DHT22;11794;49.730;10.088;2022-08-05T00:12:29;22.20;90.00
23251;DHT22;11794;49.730;10.088;2022-08-05T00:14:55;22.10;89.30
23251;DHT22;11794;49.730;10.088;2022-08-05T00:17:21;22.10;89.40
23251;DHT22;11794;49.730;10.088;2022-08-05T00:19:46;22.00;88.60
23251;DHT22;11794;49.730;10.088;2022-08-05T00:22:12;22.00;88.10
23251;DHT22;11794;49.730;10.088;2022-08-05T00:24:38;22.10;88.60
23251;DHT22;11794;49.730;10.088;2022-08-05T00:27:03;22.10;87.90
23251;DHT22;11794;49.730;10.088;2022-08-05T00:29:29;22.20;87.90
23251;DHT22;11794;49.730;10.088;2022-08-05T00:31:55;22.20;88.00
23251;DHT22;11794;49.730;10.088;2022-08-05T00:34:20;22.20;88.20
23251;DHT22;11794;49.730;10.088;2022-08-05T00:36:46;22.20;88.60
23251;DHT22;11794;49.730;10.088;2022-08-05T00:39:11;22.20;89.10
23251;DHT22;11794;49.730;10.088;2022-08-05T00:41:37;22.20;89.80
23251;DHT22;11794;49.730;10.088;2022-08-05T00:44:03;21.90;90.00
23251;DHT22;11794;49.730;10.088;2022-08-05T00:46:29;21.80;90.10
23251;DHT22;11794;49.730;10.088;2022-08-05T00:48:54;21.60;90.30
23251;DHT22;11794;49.730;10.088;2022-08-05T00:51:21;21.60;90.90
23251;DHT22;11794;49.730;10.088;2022-08-05T00:53:47;21.50;91.00
23251;DHT22;11794;49.730;10.088;2022-08-05T00:56:14;21.50;91.20
23251;DHT22;11794;49.730;10.088;2022-08-05T00:58:40;21.40;90.70
23251;DHT22;11794;49.730;10.088;2022-08-05T01:01:06;21.30;90.90
23251;DHT22;11794;49.730;10.088;2022-08-05T01:03:32;21.30;90.70
23251;DHT22;11794;49.730;10.088;2022-08-05T01:05:57;21.50;90.60
23251;DHT22;11794;49.730;10.088;2022-08-05T01:08:23;21.60;90.20
23251;DHT22;11794;49.730;10.088;2022-08-05T01:10:55;21.70;90.00
23251;DHT22;11794;49.730;10.088;2022-08-05T01:13:31;21.90;89.70
23251;DHT22;11794;49.730;10.088;2022-08-05T01:15:59;22.00;90.40
23251;DHT22;11794;49.730;10.088;2022-08-05T01:18:32;22.00;90.40
23251;DHT22;11794;49.730;10.088;2022-08-05T01:21:35;22.00;90.10
23251;DHT22;11794;49.730;10.088;2022-08-05T01:27:28;22.10;89.60
23251;DHT22;11794;49.730;10.088;2022-08-05T01:30:02;22.20;89.30
23251;DHT22;11794;49.730;10.088;2022-08-05T01:32:32;22.40;90.00
23251;DHT22;11794;49.730;10.088;2022-08-05T01:35:06;22.30;90.10
23251;DHT22;11794;49.730;10.088;2022-08-05T01:37:48;22.40;90.00
23251;DHT22;11794;49.730;10.088;2022-08-05T01:40:16;22.40;90.50
23251;DHT22;11794;49.730;10.088;2022-08-05T01:42:44;22.40;90.60
23251;DHT22;11794;49.730;10.088;2022-08-05T01:45:12;22.40;90.80
23251;DHT22;11794;49.730;10.088;2022-08-05T01:47:39;22.40;90.60
23251;DHT22;11794;49.730;10.088;2022-08-05T01:50:10;22.30;90.80
23251;DHT22;11794;49.730;10.088;2022-08-05T01:52:37;22.30;90.50
23251;DHT22;11794;49.730;10.088;2022-08-05T01:55:08;22.40;90.90
23251;DHT22;11794;49.730;10.088;2022-08-05T01:57:39;22.50;90.30
23251;DHT22;11794;49.730;10.088;2022-08-05T02:00:07;22.60;90.10
23251;DHT22;11794;49.730;10.088;2022-08-05T02:02:39;22.70;90.00
23251;DHT22;11794;49.730;10.088;2022-08-05T02:05:08;22.80;89.70
23251;DHT22;11794;49.730;10.088;2022-08-05T02:07:35;22.90;89.60
23251;DHT22;11794;49.730;10.088;2022-08-05T02:10:02;23.00;89.60
23251;DHT22;11794;49.730;10.088;2022-08-05T02:12:42;23.00;89.70
23251;DHT22;11794;49.730;10.088;2022-08-05T02:15:16;23.10;90.10
23251;DHT22;11794;49.730;10.088;2022-08-05T02:18:01;23.10;90.20
23251;DHT22;11794;49.730;10.088;2022-08-05T02:20:35;23.20;90.40
23251;DHT22;11794;49.730;10.088;2022-08-05T02:23:06;23.20;90.70
23251;DHT22;11794;49.730;10.088;2022-08-05T02:25:39;23.20;90.70
23251;DHT22;11794;49.730;10.088;2022-08-05T02:28:07;23.20;90.70
23251;DHT22;11794;49.730;10.088;2022-08-05T02:30:45;23.30;90.90
23251;DHT22;11794;49.730;10.088;2022-08-05T02:33:14;23.40;91.40
23251;DHT22;11794;49.730;10.088;2022-08-05T02:35:41;23.40;91.60
23251;DHT22;11794;49.730;10.088;2022-08-05T02:38:09;23.50;92.10
23251;DHT22;11794;49.730;10.088;2022-08-05T02:40:36;23.60;92.50
23251;DHT22;11794;49.730;10.088;2022-08-05T02:43:03;23.60;92.80
23251;DHT22;11794;49.730;10.088;2022-08-05T02:45:30;23.60;93.20
23251;DHT22;11794;49.730;10.088;2022-08-05T02:47:58;23.60;93.30
23251;DHT22;11794;49.730;10.088;2022-08-05T02:50:25;23.60;93.50
23251;DHT22;11794;49.730;10.088;2022-08-05T02:52:52;23.60;93.80
23251;DHT22;11794;49.730;10.088;2022-08-05T02:55:18;23.50;93.90
23251;DHT22;11794;49.730;10.088;2022-08-05T02:57:44;23.50;94.10
23251;DHT22;11794;49.730;10.088;2022-08-05T03:00:11;23.40;94.40
23251;DHT22;11794;49.730;10.088;2022-08-05T03:02:39;23.40;94.70
23251;DHT22;11794;49.730;10.088;2022-08-05T03:05:08;23.30;94.80
23251;DHT22;11794;49.730;10.088;2022-08-05T03:07:35;23.30;95.10
23251;DHT22;11794;49.730;10.088;2022-08-05T03:10:01;23.30;95.30
23251;DHT22;11794;49.730;10.088;2022-08-05T03:12:33;23.30;95.70
23251;DHT22;11794;49.730;10.088;2022-08-05T03:14:59;23.30;95.90
23251;DHT22;11794;49.730;10.088;2022-08-05T03:17:25;23.20;96.50
23251;DHT22;11794;49.730;10.088;2022-08-05T03:19:50;23.20;96.30
23251;DHT22;11794;49.730;10.088;2022-08-05T03:22:16;23.20;96.80
23251;DHT22;11794;49.730;10.088;2022-08-05T03:24:42;23.10;97.00
23251;DHT22;11794;49.730;10.088;2022-08-05T03:27:09;23.10;97.40
23251;DHT22;11794;49.730;10.088;2022-08-05T03:29:35;23.10;97.80
23251;DHT22;11794;49.730;10.088;2022-08-05T03:32:01;23.00;98.40
23251;DHT22;11794;49.730;10.088;2022-08-05T03:34:27;23.00;98.90
23251;DHT22;11794;49.730;10.088;2022-08-05T03:36:53;23.00;99.40
23251;DHT22;11794;49.730;10.088;2022-08-05T03:39:18;23.00;99.90
23251;DHT22;11794;49.730;10.088;2022-08-05T03:41:44;23.00;99.90
23251;DHT22;11794;49.730;10.088;2022-08-05T03:44:09;23.00;99.90
23251;DHT22;11794;49.730;10.088;2022-08-05T03:46:35;23.00;99.90
23251;DHT22;11794;49.730;10.088;2022-08-05T03:49:01;22.90;99.90
23251;DHT22;11794;49.730;10.088;2022-08-05T03:51:29;22.90;99.90
23251;DHT22;11794;49.730;10.088;2022-08-05T03:54:02;22.90;99.90
23251;DHT22;11794;49.730;10.088;2022-08-05T03:56:39;23.00;99.90
23251;DHT22;11794;49.730;10.088;2022-08-05T03:59:08;22.90;99.90
23251;DHT22;11794;49.730;10.088;2022-08-05T04:01:38;22.90;99.90
23251;DHT22;11794;49.730;10.088;2022-08-05T04:04:05;22.90;99.90
23251;DHT22;11794;49.730;10.088;2022-08-05T04:06:35;22.90;99.90
23251;DHT22;11794;49.730;10.088;2022-08-05T04:09:02;23.00;99.90
23251;DHT22;11794;49.730;10.088;2022-08-05T04:11:30;23.00;99.90
23251;DHT22;11794;49.730;10.088;2022-08-05T04:13:56;23.00;99.90
23251;DHT22;11794;49.730;10.088;2022-08-05T04:16:21;23.00;99.90
23251;DHT22;11794;49.730;10.088;2022-08-05T04:18:47;23.00;99.90
23251;DHT22;11794;49.730;10.088;2022-08-05T04:21:13;23.00;99.90
23251;DHT22;11794;49.730;10.088;2022-08-05T04:23:38;23.00;99.90
23251;DHT22;11794;49.730;10.088;2022-08-05T04:26:04;23.00;99.90
23251;DHT22;11794;49.730;10.088;2022-08-05T04:28:30;23.00;99.90
23251;DHT22;11794;49.730;10.088;2022-08-05T04:30:56;23.00;99.90
23251;DHT22;11794;49.730;10.088;2022-08-05T04:33:21;22.90;99.90
23251;DHT22;11794;49.730;10.088;2022-08-05T04:35:47;22.90;99.90
23251;DHT22;11794;49.730;10.088;2022-08-05T04:38:12;22.90;99.90
23251;DHT22;11794;49.730;10.088;2022-08-05T04:40:39;22.80;99.90
23251;DHT22;11794;49.730;10.088;2022-08-05T04:43:05;22.90;99.90
23251;DHT22;11794;49.730;10.088;2022-08-05T04:45:31;22.90;99.90
23251;DHT22;11794;49.730;10.088;2022-08-05T04:48:26;22.90;99.90
23251;DHT22;11794;49.730;10.088;2022-08-05T04:50:51;23.00;99.90
23251;DHT22;11794;49.730;10.088;2022-08-05T04:53:17;23.00;99.90
23251;DHT22;11794;49.730;10.088;2022-08-05T04:55:44;23.10;99.90
23251;DHT22;11794;49.730;10.088;2022-08-05T04:58:12;23.20;99.90
23251;DHT22;11794;49.730;10.088;2022-08-05T05:00:38;23.30;99.90
23251;DHT22;11794;49.730;10.088;2022-08-05T05:03:05;23.50;99.90
23251;DHT22;11794;49.730;10.088;2022-08-05T05:05:31;23.70;99.90
23251;DHT22;11794;49.730;10.088;2022-08-05T05:08:02;23.90;99.90
23251;DHT22;11794;49.730;10.088;2022-08-05T05:10:30;24.10;99.90
23251;DHT22;11794;49.730;10.088;2022-08-05T05:12:56;24.30;99.90
23251;DHT22;11794;49.730;10.088;2022-08-05T05:15:22;24.50;99.90
23251;DHT22;11794;49.730;10.088;2022-08-05T05:17:47;24.70;99.90
23251;DHT22;11794;49.730;10.088;2022-08-05T05:20:13;24.80;99.90
23251;DHT22;11794;49.730;10.088;2022-08-05T05:22:39;24.90;99.90
23251;DHT22;11794;49.730;10.088;2022-08-05T05:25:05;24.90;99.90
23251;DHT22;11794;49.730;10.088;2022-08-05T05:27:32;24.90;99.90
23251;DHT22;11794;49.730;10.088;2022-08-05T05:29:58;24.80;99.90
23251;DHT22;11794;49.730;10.088;2022-08-05T05:32:23;24.80;99.90
23251;DHT22;11794;49.730;10.088;2022-08-05T05:34:49;24.70;99.90
23251;DHT22;11794;49.730;10.088;2022-08-05T05:37:15;24.60;99.90
23251;DHT22;11794;49.730;10.088;2022-08-05T05:39:41;24.60;99.90
23251;DHT22;11794;49.730;10.088;2022-08-05T05:42:06;24.60;99.90
23251;DHT22;11794;49.730;10.088;2022-08-05T05:44:32;24.70;99.90
23251;DHT22;11794;49.730;10.088;2022-08-05T05:46:58;24.80;99.90
23251;DHT22;11794;49.730;10.088;2022-08-05T05:49:24;24.90;99.90
23251;DHT22;11794;49.730;10.088;2022-08-05T05:51:50;25.00;99.90
23251;DHT22;11794;49.730;10.088;2022-08-05T05:54:16;25.20;99.90
23251;DHT22;11794;49.730;10.088;2022-08-05T05:56:41;25.30;99.90
23251;DHT22;11794;49.730;10.088;2022-08-05T05:59:07;25.40;99.90
23251;DHT22;11794;49.730;10.088;2022-08-05T06:01:34;25.60;99.20
23251;DHT22;11794;49.730;10.088;2022-08-05T06:04:00;25.60;98.60
23251;DHT22;11794;49.730;10.088;2022-08-05T06:06:25;25.60;98.70
23251;DHT22;11794;49.730;10.088;2022-08-05T06:08:51;25.60;98.20
23251;DHT22;11794;49.730;10.088;2022-08-05T06:11:16;25.60;98.10
23251;DHT22;11794;49.730;10.088;2022-08-05T06:13:42;25.70;98.30
23251;DHT22;11794;49.730;10.088;2022-08-05T06:16:07;25.80;97.70
23251;DHT22;11794;49.730;10.088;2022-08-05T06:18:33;25.90;97.60
23251;DHT22;11794;49.730;10.088;2022-08-05T06:20:58;25.90;97.70
23251;DHT22;11794;49.730;10.088;2022-08-05T06:23:24;26.00;97.40
23251;DHT22;11794;49.730;10.088;2022-08-05T06:25:50;26.00;97.20
23251;DHT22;11794;49.730;10.088;2022-08-05T06:28:15;26.10;97.40
23251;DHT22;11794;49.730;10.088;2022-08-05T06:30:41;26.00;97.30
23251;DHT22;11794;49.730;10.088;2022-08-05T06:33:07;26.00;97.30
23251;DHT22;11794;49.730;10.088;2022-08-05T06:35:33;26.00;97.50
23251;DHT22;11794;49.730;10.088;2022-08-05T06:37:58;26.00;97.10
23251;DHT22;11794;49.730;10.088;2022-08-05T06:40:24;26.00;97.00
23251;DHT22;11794;49.730;10.088;2022-08-05T06:42:49;25.90;97.00
23251;DHT22;11794;49.730;10.088;2022-08-05T06:45:15;25.80;97.20
23251;DHT22;11794;49.730;10.088;2022-08-05T06:47:40;25.90;97.30
23251;DHT22;11794;49.730;10.088;2022-08-05T06:50:06;25.90;97.00
23251;DHT22;11794;49.730;10.088;2022-08-05T06:52:32;26.10;97.10
23251;DHT22;11794;49.730;10.088;2022-08-05T06:54:57;26.20;97.30
23251;DHT22;11794;49.730;10.088;2022-08-05T06:57:23;26.30;96.80
23251;DHT22;11794;49.730;10.088;2022-08-05T06:59:48;26.40;96.70
23251;DHT22;11794;49.730;10.088;2022-08-05T07:02:14;26.50;96.50
23251;DHT22;11794;49.730;10.088;2022-08-05T07:04:39;26.50;96.20
23251;DHT22;11794;49.730;10.088;2022-08-05T07:07:05;26.60;96.00
23251;DHT22;11794;49.730;10.088;2022-08-05T07:09:31;26.70;96.00
23251;DHT22;11794;49.730;10.088;2022-08-05T07:11:56;26.80;95.90
23251;DHT22;11794;49.730;10.088;2022-08-05T07:14:22;26.90;95.30
23251;DHT22;11794;49.730;10.088;2022-08-05T07:17:06;27.00;95.60
23251;DHT22;11794;49.730;10.088;2022-08-05T07:19:31;27.10;95.60
23251;DHT22;11794;49.730;10.088;2022-08-05T07:21:57;27.20;95.30
23251;DHT22;11794;49.730;10.088;2022-08-05T07:24:23;27.40;95.20
23251;DHT22;11794;49.730;10.088;2022-08-05T07:26:49;27.60;94.70
23251;DHT22;11794;49.730;10.088;2022-08-05T07:29:15;27.70;94.20
23251;DHT22;11794;49.730;10.088;2022-08-05T07:31:41;27.80;94.30
23251;DHT22;11794;49.730;10.088;2022-08-05T07:34:07;27.90;93.90
23251;DHT22;11794;49.730;10.088;2022-08-05T07:36:33;28.00;93.70
23251;DHT22;11794;49.730;10.088;2022-08-05T07:39:03;28.20;93.60
23251;DHT22;11794;49.730;10.088;2022-08-05T07:41:29;28.40;93.40
23251;DHT22;11794;49.730;10.088;2022-08-05T07:43:55;28.70;92.90
23251;DHT22;11794;49.730;10.088;2022-08-05T07:46:22;29.10;92.70
23251;DHT22;11794;49.730;10.088;2022-08-05T07:48:47;29.30;92.20
23251;DHT22;11794;49.730;10.088;2022-08-05T07:51:13;29.20;92.10
23251;DHT22;11794;49.730;10.088;2022-08-05T07:53:40;29.00;91.90
23251;DHT22;11794;49.730;10.088;2022-08-05T07:56:06;28.70;92.00
23251;DHT22;11794;49.730;10.088;2022-08-05T07:58:31;28.60;92.20
23251;DHT22;11794;49.730;10.088;2022-08-05T08:00:57;28.60;91.80
23251;DHT22;11794;49.730;10.088;2022-08-05T08:03:23;28.90;92.00
23251;DHT22;11794;49.730;10.088;2022-08-05T08:05:49;28.90;90.70
23251;DHT22;11794;49.730;10.088;2022-08-05T08:08:18;29.30;91.00
23251;DHT22;11794;49.730;10.088;2022-08-05T08:10:44;30.10;90.60
23251;DHT22;11794;49.730;10.088;2022-08-05T08:13:09;30.50;89.30
23251;DHT22;11794;49.730;10.088;2022-08-05T08:15:35;31.20;86.70
23251;DHT22;11794;49.730;10.088;2022-08-05T08:18:01;32.00;84.60
23251;DHT22;11794;49.730;10.088;2022-08-05T08:20:26;32.50;82.30
23251;DHT22;11794;49.730;10.088;2022-08-05T08:22:56;32.30;81.50
23251;DHT22;11794;49.730;10.088;2022-08-05T08:25:24;31.50;82.20
23251;DHT22;11794;49.730;10.088;2022-08-05T08:27:50;30.80;82.10
23251;DHT22;11794;49.730;10.088;2022-08-05T08:30:15;30.20;83.90
23251;DHT22;11794;49.730;10.088;2022-08-05T08:32:41;29.90;85.10
23251;DHT22;11794;49.730;10.088;2022-08-05T08:35:07;29.80;85.80
23251;DHT22;11794;49.730;10.088;2022-08-05T08:37:33;29.70;87.20
23251;DHT22;11794;49.730;10.088;2022-08-05T08:39:58;29.70;86.20
23251;DHT22;11794;49.730;10.088;2022-08-05T08:42:24;29.80;87.60
23251;DHT22;11794;49.730;10.088;2022-08-05T08:44:53;29.60;86.70
23251;DHT22;11794;49.730;10.088;2022-08-05T08:47:22;29.60;88.40
23251;DHT22;11794;49.730;10.088;2022-08-05T08:49:51;29.40;87.90
23251;DHT22;11794;49.730;10.088;2022-08-05T08:52:22;29.10;87.30
23251;DHT22;11794;49.730;10.088;2022-08-05T08:54:50;28.90;86.10
23251;DHT22;11794;49.730;10.088;2022-08-05T08:57:16;28.60;87.30
23251;DHT22;11794;49.730;10.088;2022-08-05T08:59:42;28.80;88.40
23251;DHT22;11794;49.730;10.088;2022-08-05T09:02:08;29.80;86.20
23251;DHT22;11794;49.730;10.088;2022-08-05T09:04:34;31.00;83.20
23251;DHT22;11794;49.730;10.088;2022-08-05T09:07:06;32.00;81.00
23251;DHT22;11794;49.730;10.088;2022-08-05T09:09:33;32.60;74.70
23251;DHT22;11794;49.730;10.088;2022-08-05T09:12:01;33.10;74.30
23251;DHT22;11794;49.730;10.088;2022-08-05T09:14:27;33.50;72.30
23251;DHT22;11794;49.730;10.088;2022-08-05T09:16:53;33.50;72.60
23251;DHT22;11794;49.730;10.088;2022-08-05T09:19:18;33.70;73.40
23251;DHT22;11794;49.730;10.088;2022-08-05T09:21:44;33.70;73.50
23251;DHT22;11794;49.730;10.088;2022-08-05T09:24:10;34.00;72.70
23251;DHT22;11794;49.730;10.088;2022-08-05T09:26:37;34.20;72.60
23251;DHT22;11794;49.730;10.088;2022-08-05T09:29:05;34.20;73.20
23251;DHT22;11794;49.730;10.088;2022-08-05T09:31:32;34.40;72.90
23251;DHT22;11794;49.730;10.088;2022-08-05T09:34:03;34.70;72.40
23251;DHT22;11794;49.730;10.088;2022-08-05T09:36:44;35.00;72.20
23251;DHT22;11794;49.730;10.088;2022-08-05T09:39:11;35.30;71.50
23251;DHT22;11794;49.730;10.088;2022-08-05T09:41:56;35.30;70.60
23251;DHT22;11794;49.730;10.088;2022-08-05T09:44:52;35.30;71.30
23251;DHT22;11794;49.730;10.088;2022-08-05T09:47:19;34.80;71.70
23251;DHT22;11794;49.730;10.088;2022-08-05T09:49:47;35.40;71.20
23251;DHT22;11794;49.730;10.088;2022-08-05T09:57:37;36.40;68.60
23251;DHT22;11794;49.730;10.088;2022-08-05T10:00:11;36.20;68.90
23251;DHT22;11794;49.730;10.088;2022-08-05T10:02:42;36.00;68.80
23251;DHT22;11794;49.730;10.088;2022-08-05T10:05:12;35.70;67.20
23251;DHT22;11794;49.730;10.088;2022-08-05T10:07:52;34.70;69.30
23251;DHT22;11794;49.730;10.088;2022-08-05T10:10:25;34.70;70.40
23251;DHT22;11794;49.730;10.088;2022-08-05T10:12:54;35.40;70.30
23251;DHT22;11794;49.730;10.088;2022-08-05T10:15:28;35.50;69.30
23251;DHT22;11794;49.730;10.088;2022-08-05T10:18:15;34.30;69.10
23251;DHT22;11794;49.730;10.088;2022-08-05T10:20:51;33.30;70.50
23251;DHT22;11794;49.730;10.088;2022-08-05T10:23:25;32.80;73.10
23251;DHT22;11794;49.730;10.088;2022-08-05T10:25:53;31.70;75.30
23251;DHT22;11794;49.730;10.088;2022-08-05T10:28:19;30.70;78.40
23251;DHT22;11794;49.730;10.088;2022-08-05T10:30:45;30.50;78.30
23251;DHT22;11794;49.730;10.088;2022-08-05T10:33:10;30.40;78.50
23251;DHT22;11794;49.730;10.088;2022-08-05T10:35:36;30.50;78.30
23251;DHT22;11794;49.730;10.088;2022-08-05T10:38:03;30.70;77.40
23251;DHT22;11794;49.730;10.088;2022-08-05T10:46:12;31.60;74.70
23251;DHT22;11794;49.730;10.088;2022-08-05T10:48:39;32.20;75.60
23251;DHT22;11794;49.730;10.088;2022-08-05T10:51:17;33.10;72.70
23251;DHT22;11794;49.730;10.088;2022-08-05T10:53:53;33.20;71.20
23251;DHT22;11794;49.730;10.088;2022-08-05T10:56:24;32.90;71.70
23251;DHT22;11794;49.730;10.088;2022-08-05T11:01:34;33.60;70.60
23251;DHT22;11794;49.730;10.088;2022-08-05T11:04:05;34.60;68.10
23251;DHT22;11794;49.730;10.088;2022-08-05T11:06:32;35.80;66.90
23251;DHT22;11794;49.730;10.088;2022-08-05T11:09:20;36.60;64.90
23251;DHT22;11794;49.730;10.088;2022-08-05T11:11:51;37.10;63.30
23251;DHT22;11794;49.730;10.088;2022-08-05T11:19:51;37.40;59.30
23251;DHT22;11794;49.730;10.088;2022-08-05T11:33:35;38.20;58.00
23251;DHT22;11794;49.730;10.088;2022-08-05T11:36:01;38.40;57.80
23251;DHT22;11794;49.730;10.088;2022-08-05T11:41:26;37.80;58.40
23251;DHT22;11794;49.730;10.088;2022-08-05T11:46:42;38.20;57.50
23251;DHT22;11794;49.730;10.088;2022-08-05T11:49:11;38.50;56.50
23251;DHT22;11794;49.730;10.088;2022-08-05T11:51:47;38.40;56.80
23251;DHT22;11794;49.730;10.088;2022-08-05T11:54:19;38.50;55.90
23251;DHT22;11794;49.730;10.088;2022-08-05T11:56:48;38.40;56.20
23251;DHT22;11794;49.730;10.088;2022-08-05T11:59:18;39.00;56.60
23251;DHT22;11794;49.730;10.088;2022-08-05T12:02:02;39.30;56.00
23251;DHT22;11794;49.730;10.088;2022-08-05T12:04:41;39.70;55.50
23251;DHT22;11794;49.730;10.088;2022-08-05T12:07:08;40.10;54.80
23251;DHT22;11794;49.730;10.088;2022-08-05T12:09:37;39.90;55.60
23251;DHT22;11794;49.730;10.088;2022-08-05T12:12:04;39.70;56.50
23251;DHT22;11794;49.730;10.088;2022-08-05T12:14:38;39.40;56.10
23251;DHT22;11794;49.730;10.088;2022-08-05T12:17:08;39.20;56.50
23251;DHT22;11794;49.730;10.088;2022-08-05T12:20:00;39.50;56.10
23251;DHT22;11794;49.730;10.088;2022-08-05T12:22:27;39.20;55.50
23251;DHT22;11794;49.730;10.088;2022-08-05T12:24:53;38.90;55.10
23251;DHT22;11794;49.730;10.088;2022-08-05T12:27:27;39.00;54.60
23251;DHT22;11794;49.730;10.088;2022-08-05T12:30:11;38.70;53.70
23251;DHT22;11794;49.730;10.088;2022-08-05T12:32:47;38.80;53.50
23251;DHT22;11794;49.730;10.088;2022-08-05T12:35:18;38.90;54.00
23251;DHT22;11794;49.730;10.088;2022-08-05T12:37:45;38.80;53.20
23251;DHT22;11794;49.730;10.088;2022-08-05T12:40:11;39.10;53.20
23251;DHT22;11794;49.730;10.088;2022-08-05T12:42:38;39.40;53.90
23251;DHT22;11794;49.730;10.088;2022-08-05T12:45:08;39.60;53.20
23251;DHT22;11794;49.730;10.088;2022-08-05T12:47:34;40.10;53.00
23251;DHT22;11794;49.730;10.088;2022-08-05T12:50:14;40.30;52.60
23251;DHT22;11794;49.730;10.088;2022-08-05T12:52:41;40.00;53.40
23251;DHT22;11794;49.730;10.088;2022-08-05T12:55:23;39.70;53.80
23251;DHT22;11794;49.730;10.088;2022-08-05T12:57:51;39.00;53.80
23251;DHT22;11794;49.730;10.088;2022-08-05T13:00:25;38.70;54.00
23251;DHT22;11794;49.730;10.088;2022-08-05T13:02:53;38.80;54.50
23251;DHT22;11794;49.730;10.088;2022-08-05T13:05:21;38.50;55.10
23251;DHT22;11794;49.730;10.088;2022-08-05T13:07:47;38.00;54.30
23251;DHT22;11794;49.730;10.088;2022-08-05T13:10:14;38.00;54.70
23251;DHT22;11794;49.730;10.088;2022-08-05T13:12:41;38.80;54.50
23251;DHT22;11794;49.730;10.088;2022-08-05T13:15:12;39.80;54.10
23251;DHT22;11794;49.730;10.088;2022-08-05T13:17:38;40.00;53.50
23251;DHT22;11794;49.730;10.088;2022-08-05T13:20:14;40.40;53.50
23251;DHT22;11794;49.730;10.088;2022-08-05T13:22:45;40.90;53.90
23251;DHT22;11794;49.730;10.088;2022-08-05T13:25:12;41.30;52.20
23251;DHT22;11794;49.730;10.088;2022-08-05T13:27:46;41.20;51.30
23251;DHT22;11794;49.730;10.088;2022-08-05T13:30:14;41.50;51.40
23251;DHT22;11794;49.730;10.088;2022-08-05T13:32:40;41.40;52.00
23251;DHT22;11794;49.730;10.088;2022-08-05T13:35:06;41.40;52.40
23251;DHT22;11794;49.730;10.088;2022-08-05T13:37:33;41.70;52.30
23251;DHT22;11794;49.730;10.088;2022-08-05T13:39:59;42.00;51.70
23251;DHT22;11794;49.730;10.088;2022-08-05T13:42:24;42.00;51.30
23251;DHT22;11794;49.730;10.088;2022-08-05T13:44:52;41.20;51.90
23251;DHT22;11794;49.730;10.088;2022-08-05T13:47:17;40.90;52.70
23251;DHT22;11794;49.730;10.088;2022-08-05T13:49:43;40.10;54.00
23251;DHT22;11794;49.730;10.088;2022-08-05T13:52:20;39.90;55.30
23251;DHT22;11794;49.730;10.088;2022-08-05T13:54:46;40.00;54.00
23251;DHT22;11794;49.730;10.088;2022-08-05T13:57:12;40.60;54.30
23251;DHT22;11794;49.730;10.088;2022-08-05T13:59:39;40.80;54.30
23251;DHT22;11794;49.730;10.088;2022-08-05T14:02:07;40.80;54.40
23251;DHT22;11794;49.730;10.088;2022-08-05T14:04:35;40.60;54.40
23251;DHT22;11794;49.730;10.088;2022-08-05T14:07:32;40.50;54.80
23251;DHT22;11794;49.730;10.088;2022-08-05T14:09:58;40.30;54.80
23251;DHT22;11794;49.730;10.088;2022-08-05T14:12:24;40.20;54.50
23251;DHT22;11794;49.730;10.088;2022-08-05T14:14:50;39.80;55.30
23251;DHT22;11794;49.730;10.088;2022-08-05T14:17:16;38.40;56.60
23251;DHT22;11794;49.730;10.088;2022-08-05T14:19:42;37.30;58.20
23251;DHT22;11794;49.730;10.088;2022-08-05T14:22:08;36.80;59.40
23251;DHT22;11794;49.730;10.088;2022-08-05T14:24:34;36.70;59.30
23251;DHT22;11794;49.730;10.088;2022-08-05T14:27:00;36.70;59.50
23251;DHT22;11794;49.730;10.088;2022-08-05T14:29:27;36.00;60.10
23251;DHT22;11794;49.730;10.088;2022-08-05T14:31:52;34.90;61.40
23251;DHT22;11794;49.730;10.088;2022-08-05T14:34:18;34.10;61.90
23251;DHT22;11794;49.730;10.088;2022-08-05T14:36:43;33.50;63.50
23251;DHT22;11794;49.730;10.088;2022-08-05T14:39:09;33.20;65.00
23251;DHT22;11794;49.730;10.088;2022-08-05T14:41:34;33.30;64.60
23251;DHT22;11794;49.730;10.088;2022-08-05T14:44:00;33.40;65.40
23251;DHT22;11794;49.730;10.088;2022-08-05T14:46:27;33.10;65.80
23251;DHT22;11794;49.730;10.088;2022-08-05T14:48:53;32.80;66.50
23251;DHT22;11794;49.730;10.088;2022-08-05T14:51:19;32.70;66.60
23251;DHT22;11794;49.730;10.088;2022-08-05T14:53:45;32.60;66.70
23251;DHT22;11794;49.730;10.088;2022-08-05T14:56:11;32.50;67.10
23251;DHT22;11794;49.730;10.088;2022-08-05T14:58:36;32.30;68.20
23251;DHT22;11794;49.730;10.088;2022-08-05T15:01:02;32.30;68.30
23251;DHT22;11794;49.730;10.088;2022-08-05T15:03:29;32.30;68.70
23251;DHT22;11794;49.730;10.088;2022-08-05T15:05:55;31.80;68.90
23251;DHT22;11794;49.730;10.088;2022-08-05T15:08:20;31.60;70.40
23251;DHT22;11794;49.730;10.088;2022-08-05T15:10:46;31.70;70.50
23251;DHT22;11794;49.730;10.088;2022-08-05T15:13:11;31.70;70.70
23251;DHT22;11794;49.730;10.088;2022-08-05T15:15:37;31.60;70.80
23251;DHT22;11794;49.730;10.088;2022-08-05T15:18:03;31.40;71.50
23251;DHT22;11794;49.730;10.088;2022-08-05T15:20:29;31.30;71.90
23251;DHT22;11794;49.730;10.088;2022-08-05T15:22:54;31.10;72.70
23251;DHT22;11794;49.730;10.088;2022-08-05T15:25:21;31.00;73.00
23251;DHT22;11794;49.730;10.088;2022-08-05T15:27:47;30.90;73.20
23251;DHT22;11794;49.730;10.088;2022-08-05T15:30:12;30.90;73.40
23251;DHT22;11794;49.730;10.088;2022-08-05T15:32:38;30.80;74.20
23251;DHT22;11794;49.730;10.088;2022-08-05T15:35:04;30.80;74.60
23251;DHT22;11794;49.730;10.088;2022-08-05T15:37:30;30.80;74.90
23251;DHT22;11794;49.730;10.088;2022-08-05T15:39:56;30.80;74.70
23251;DHT22;11794;49.730;10.088;2022-08-05T15:42:22;30.70;74.90
23251;DHT22;11794;49.730;10.088;2022-08-05T15:44:48;30.70;75.00
23251;DHT22;11794;49.730;10.088;2022-08-05T15:47:14;30.40;75.20
23251;DHT22;11794;49.730;10.088;2022-08-05T15:49:40;30.20;76.50
23251;DHT22;11794;49.730;10.088;2022-08-05T15:52:06;30.00;77.10
23251;DHT22;11794;49.730;10.088;2022-08-05T15:54:31;29.80;77.80
23251;DHT22;11794;49.730;10.088;2022-08-05T15:56:57;29.70;78.40
23251;DHT22;11794;49.730;10.088;2022-08-05T15:59:22;29.80;78.50